Time,TemperatureF,DewpointF,PressureIn,WindDirection,WindDirectionDegrees,WindSpeedMPH,WindSpeedGustMPH,Humidity,HourlyPrecipIn,Conditions,Clouds,dailyrainin,SoftwareType,DateUTC
2013-05-26 00:01:00,50.0,9.0,-100.00,SSW,204,5.0,9.0,19,-99.99,,,-99.99,,2013-05-26 07:01:00,
2013-05-26 00:11:00,50.0,9.0,-100.00,SW,217,4.0,8.0,19,-99.99,,,-99.99,,2013-05-26 07:11:00,
2013-05-26 00:21:00,50.0,8.0,-100.00,SW,218,4.0,8.0,18,-99.99,,,-99.99,,2013-05-26 07:21:00,
2013-05-26 00:31:00,50.0,6.0,-100.00,WSW,241,4.0,7.0,16,-99.99,,,-99.99,,2013-05-26 07:31:00,
2013-05-26 00:42:00,50.0,6.0,-100.00,SW,230,5.0,8.0,16,-99.99,,,-99.99,,2013-05-26 07:42:00,
2013-05-26 00:52:00,50.0,6.0,-100.00,WSW,239,4.0,8.0,16,-99.99,,,-99.99,,2013-05-26 07:52:00,
2013-05-26 01:01:00,49.0,3.0,-100.00,SW,222,4.0,9.0,15,-99.99,,,-99.99,,2013-05-26 08:01:00,
2013-05-26 01:11:00,49.0,3.0,-100.00,SSW,206,6.0,10.0,15,-99.99,,,-99.99,,2013-05-26 08:11:00,
2013-05-26 01:21:00,49.0,3.0,-100.00,SSW,210,4.0,8.0,15,-99.99,,,-99.99,,2013-05-26 08:21:00,
2013-05-26 01:31:00,49.0,0.0,-100.00,SW,231,3.0,6.0,13,-99.99,,,-99.99,,2013-05-26 08:31:00,
2013-05-26 01:41:00,49.0,-1.0,-100.00,SW,227,3.0,8.0,12,-99.99,,,-99.99,,2013-05-26 08:41:00,
2013-05-26 01:52:00,49.0,3.0,-100.00,WSW,242,2.0,5.0,15,-99.99,,,-99.99,,2013-05-26 08:52:00,
2013-05-26 02:01:00,48.0,8.0,-100.00,SSW,204,3.0,8.0,19,-99.99,,,-99.99,,2013-05-26 09:01:00,
2013-05-26 02:11:00,48.0,9.0,-100.00,SSW,208,4.0,8.0,20,-99.99,,,-99.99,,2013-05-26 09:11:00,
2013-05-26 02:21:00,49.0,0.0,-100.00,SW,229,4.0,7.0,13,-99.99,,,-99.99,,2013-05-26 09:21:00,
2013-05-26 02:33:00,50.0,-2.0,-100.00,SW,230,4.0,6.0,11,-99.99,,,-99.99,,2013-05-26 09:33:00,
2013-05-26 02:42:00,50.0,-1.0,-100.00,WSW,240,4.0,6.0,12,-99.99,,,-99.99,,2013-05-26 09:42:00,
2013-05-26 02:52:00,51.0,4.0,-100.00,WSW,250,4.0,7.0,14,-99.99,,,-99.99,,2013-05-26 09:52:00,
2013-05-26 03:02:00,51.0,2.0,-100.00,WSW,252,3.0,7.0,13,-99.99,,,-99.99,,2013-05-26 10:02:00,
2013-05-26 03:12:00,51.0,4.0,-100.00,SW,229,4.0,7.0,14,-99.99,,,-99.99,,2013-05-26 10:12:00,
2013-05-26 03:22:00,50.0,11.0,-100.00,SSW,203,5.0,8.0,20,-99.99,,,-99.99,,2013-05-26 10:22:00,
2013-05-26 03:32:00,50.0,16.0,-100.00,SSW,210,4.0,8.0,26,-99.99,,,-99.99,,2013-05-26 10:32:00,
2013-05-26 03:42:00,50.0,18.0,-100.00,SW,220,4.0,7.0,28,-99.99,,,-99.99,,2013-05-26 10:42:00,
2013-05-26 03:52:00,49.0,18.0,-100.00,SW,218,5.0,8.0,29,-99.99,,,-99.99,,2013-05-26 10:52:00,
2013-05-26 04:02:00,49.0,20.0,-100.00,WSW,242,5.0,10.0,31,-99.99,,,-99.99,,2013-05-26 11:02:00,
2013-05-26 04:11:00,50.0,21.0,-100.00,WSW,248,6.0,10.0,31,-99.99,,,-99.99,,2013-05-26 11:11:00,
2013-05-26 04:22:00,49.0,18.0,-100.00,WSW,248,6.0,10.0,29,-99.99,,,-99.99,,2013-05-26 11:22:00,
2013-05-26 04:32:00,49.0,16.0,-100.00,WSW,248,6.0,12.0,26,-99.99,,,-99.99,,2013-05-26 11:32:00,
2013-05-26 04:42:00,49.0,15.0,-100.00,WSW,246,7.0,10.0,25,-99.99,,,-99.99,,2013-05-26 11:42:00,
2013-05-26 04:52:00,48.0,14.0,-100.00,WSW,239,8.0,11.0,25,-99.99,,,-99.99,,2013-05-26 11:52:00,
2013-05-26 05:01:00,48.0,12.0,-100.00,SW,233,7.0,12.0,23,-99.99,,,-99.99,,2013-05-26 12:01:00,
2013-05-26 05:11:00,49.0,12.0,-100.00,SW,223,8.0,12.0,22,-99.99,,,-99.99,,2013-05-26 12:11:00,
2013-05-26 05:21:00,49.0,14.0,-100.00,WSW,246,6.0,13.0,24,-99.99,,,-99.99,,2013-05-26 12:21:00,
2013-05-26 05:31:00,48.0,13.0,-100.00,WSW,242,8.0,12.0,24,-99.99,,,-99.99,,2013-05-26 12:31:00,
2013-05-26 05:41:00,49.0,16.0,-100.00,WSW,238,11.0,17.0,27,-99.99,,,-99.99,,2013-05-26 12:41:00,
2013-05-26 05:52:00,49.0,18.0,-100.00,SW,234,11.0,17.0,29,-99.99,,,-99.99,,2013-05-26 12:52:00,
2013-05-26 06:02:00,49.0,16.0,-100.00,SW,231,10.0,17.0,26,-99.99,,,-99.99,,2013-05-26 13:02:00,
2013-05-26 06:11:00,48.0,12.0,-100.00,SW,218,9.0,14.0,23,-99.99,,,-99.99,,2013-05-26 13:11:00,
2013-05-26 06:21:00,48.0,16.0,-100.00,SW,214,7.0,12.0,27,-99.99,,,-99.99,,2013-05-26 13:21:00,
2013-05-26 06:32:00,49.0,13.0,-100.00,SSW,200,8.0,13.0,23,-99.99,,,-99.99,,2013-05-26 13:32:00,
2013-05-26 06:42:00,49.0,11.0,-100.00,SSW,201,6.0,12.0,21,-99.99,,,-99.99,,2013-05-26 13:42:00,
2013-05-26 06:52:00,49.0,11.0,-100.00,SSW,201,6.0,12.0,21,-99.99,,,-99.99,,2013-05-26 13:52:00,
2013-05-26 07:01:00,51.0,16.0,-100.00,ESE,104,2.0,7.0,25,-99.99,,,-99.99,,2013-05-26 14:01:00,
2013-05-26 07:11:00,51.0,16.0,-100.00,SW,223,5.0,11.0,24,-99.99,,,-99.99,,2013-05-26 14:11:00,
2013-05-26 07:21:00,52.0,15.0,-100.00,WSW,237,5.0,9.0,23,-99.99,,,-99.99,,2013-05-26 14:21:00,
2013-05-26 07:32:00,52.0,16.0,-100.00,WSW,249,4.0,12.0,24,-99.99,,,-99.99,,2013-05-26 14:32:00,
2013-05-26 07:41:00,52.0,17.0,-100.00,West,262,5.0,12.0,25,-99.99,,,-99.99,,2013-05-26 14:41:00,
2013-05-26 07:51:00,53.0,14.0,-100.00,SW,235,7.0,16.0,21,-99.99,,,-99.99,,2013-05-26 14:51:00,
2013-05-26 08:01:00,54.0,11.0,-100.00,SW,228,9.0,15.0,18,-99.99,,,-99.99,,2013-05-26 15:01:00,
2013-05-26 08:11:00,55.0,11.0,-100.00,SW,230,10.0,15.0,17,-99.99,,,-99.99,,2013-05-26 15:11:00,
2013-05-26 08:22:00,55.0,12.0,-100.00,SW,221,9.0,15.0,18,-99.99,,,-99.99,,2013-05-26 15:22:00,
2013-05-26 08:33:00,55.0,14.0,-100.00,SW,220,9.0,14.0,19,-99.99,,,-99.99,,2013-05-26 15:33:00,
2013-05-26 08:43:00,56.0,16.0,-100.00,SW,230,9.0,14.0,20,-99.99,,,-99.99,,2013-05-26 15:43:00,
2013-05-26 08:53:00,56.0,17.0,-100.00,SW,224,10.0,16.0,21,-99.99,,,-99.99,,2013-05-26 15:53:00,
2013-05-26 09:03:00,56.0,18.0,-100.00,SW,226,12.0,17.0,22,-99.99,,,-99.99,,2013-05-26 16:03:00,
2013-05-26 09:12:00,55.0,20.0,-100.00,SW,219,11.0,18.0,25,-99.99,,,-99.99,,2013-05-26 16:12:00,
2013-05-26 09:23:00,56.0,21.0,-100.00,SW,221,11.0,19.0,25,-99.99,,,-99.99,,2013-05-26 16:23:00,
2013-05-26 09:33:00,57.0,17.0,-100.00,SW,223,10.0,17.0,21,-99.99,,,-99.99,,2013-05-26 16:33:00,
2013-05-26 09:42:00,57.0,16.0,-100.00,SSW,204,9.0,14.0,20,-99.99,,,-99.99,,2013-05-26 16:42:00,
2013-05-26 09:52:00,57.0,15.0,-100.00,SSW,212,10.0,15.0,19,-99.99,,,-99.99,,2013-05-26 16:52:00,
2013-05-26 10:02:00,58.0,15.0,-100.00,SSW,209,10.0,17.0,18,-99.99,,,-99.99,,2013-05-26 17:02:00,
2013-05-26 10:11:00,59.0,14.0,-100.00,SSW,206,11.0,19.0,17,-99.99,,,-99.99,,2013-05-26 17:11:00,
2013-05-26 10:22:00,60.0,14.0,-100.00,SW,217,11.0,17.0,16,-99.99,,,-99.99,,2013-05-26 17:22:00,
2013-05-26 10:32:00,60.0,15.0,-100.00,SW,216,11.0,17.0,17,-99.99,,,-99.99,,2013-05-26 17:32:00,
2013-05-26 10:42:00,60.0,15.0,-100.00,SSW,213,11.0,18.0,17,-99.99,,,-99.99,,2013-05-26 17:42:00,
2013-05-26 10:52:00,61.0,16.0,-100.00,SSW,212,10.0,16.0,17,-99.99,,,-99.99,,2013-05-26 17:52:00,
2013-05-26 11:01:00,60.0,16.0,-100.00,SSW,211,12.0,19.0,18,-99.99,,,-99.99,,2013-05-26 18:01:00,
2013-05-26 11:11:00,61.0,20.0,-100.00,SSW,211,9.0,16.0,20,-99.99,,,-99.99,,2013-05-26 18:11:00,
2013-05-26 11:21:00,61.0,21.0,-100.00,SW,232,9.0,16.0,21,-99.99,,,-99.99,,2013-05-26 18:21:00,
2013-05-26 11:31:00,61.0,23.0,-100.00,SSW,208,10.0,18.0,23,-99.99,,,-99.99,,2013-05-26 18:31:00,
2013-05-26 11:41:00,61.0,23.0,-100.00,SSW,209,8.0,15.0,23,-99.99,,,-99.99,,2013-05-26 18:41:00,
2013-05-26 11:52:00,61.0,23.0,-100.00,SW,214,9.0,16.0,23,-99.99,,,-99.99,,2013-05-26 18:52:00,
2013-05-26 12:01:00,61.0,24.0,-100.00,WSW,247,11.0,20.0,24,-99.99,,,-99.99,,2013-05-26 19:01:00,
2013-05-26 12:11:00,60.0,26.0,-100.00,WSW,249,11.0,20.0,27,-99.99,,,-99.99,,2013-05-26 19:11:00,
2013-05-26 12:21:00,61.0,29.0,-100.00,SW,229,8.0,21.0,30,-99.99,,,-99.99,,2013-05-26 19:21:00,
2013-05-26 12:31:00,60.0,30.0,-100.00,SW,232,10.0,22.0,32,-99.99,,,-99.99,,2013-05-26 19:31:00,
2013-05-26 12:42:00,60.0,32.0,-100.00,WSW,250,12.0,20.0,35,-99.99,,,-99.99,,2013-05-26 19:42:00,
2013-05-26 12:52:00,61.0,32.0,-100.00,WSW,252,11.0,18.0,34,-99.99,,,-99.99,,2013-05-26 19:52:00,
2013-05-26 13:01:00,60.0,31.0,-100.00,West,261,12.0,20.0,33,-99.99,,,-99.99,,2013-05-26 20:01:00,
2013-05-26 13:11:00,61.0,32.0,-100.00,WSW,258,11.0,21.0,33,-99.99,,,-99.99,,2013-05-26 20:11:00,
2013-05-26 13:21:00,61.0,34.0,-100.00,WSW,251,13.0,21.0,36,-99.99,,,-99.99,,2013-05-26 20:21:00,
2013-05-26 13:32:00,61.0,33.0,-100.00,WSW,254,15.0,24.0,35,-99.99,,,-99.99,,2013-05-26 20:32:00,
2013-05-26 13:41:00,61.0,34.0,-100.00,WSW,249,15.0,21.0,36,-99.99,,,-99.99,,2013-05-26 20:41:00,
2013-05-26 13:52:00,61.0,35.0,-100.00,WSW,240,13.0,20.0,37,-99.99,,,-99.99,,2013-05-26 20:52:00,
2013-05-26 14:01:00,62.0,34.0,-100.00,WSW,249,13.0,19.0,35,-99.99,,,-99.99,,2013-05-26 21:01:00,
2013-05-26 14:11:00,62.0,33.0,-100.00,WSW,254,15.0,23.0,34,-99.99,,,-99.99,,2013-05-26 21:11:00,
2013-05-26 14:22:00,62.0,34.0,-100.00,WSW,257,15.0,23.0,35,-99.99,,,-99.99,,2013-05-26 21:22:00,
2013-05-26 14:33:00,62.0,34.0,-100.00,West,259,16.0,25.0,35,-99.99,,,-99.99,,2013-05-26 21:33:00,
2013-05-26 14:43:00,62.0,35.0,-100.00,WSW,256,17.0,24.0,37,-99.99,,,-99.99,,2013-05-26 21:43:00,
2013-05-26 14:53:00,62.0,35.0,-100.00,WSW,255,17.0,28.0,37,-99.99,,,-99.99,,2013-05-26 21:53:00,
2013-05-26 15:02:00,62.0,36.0,-100.00,WSW,249,17.0,27.0,38,-99.99,,,-99.99,,2013-05-26 22:02:00,
2013-05-26 15:12:00,62.0,36.0,-100.00,WSW,250,17.0,25.0,38,-99.99,,,-99.99,,2013-05-26 22:12:00,
2013-05-26 15:22:00,61.0,36.0,-100.00,WSW,251,17.0,26.0,40,-99.99,,,-99.99,,2013-05-26 22:22:00,
2013-05-26 15:33:00,61.0,38.0,-100.00,WSW,258,16.0,22.0,42,-99.99,,,-99.99,,2013-05-26 22:33:00,
2013-05-26 15:42:00,61.0,37.0,-100.00,WSW,254,17.0,26.0,41,-99.99,,,-99.99,,2013-05-26 22:42:00,
2013-05-26 15:53:00,61.0,39.0,-100.00,WSW,256,19.0,26.0,44,-99.99,,,-99.99,,2013-05-26 22:53:00,
2013-05-26 16:02:00,60.0,39.0,-100.00,WSW,258,19.0,25.0,45,-99.99,,,-99.99,,2013-05-26 23:02:00,
2013-05-26 16:11:00,60.0,39.0,-100.00,West,259,19.0,26.0,46,-99.99,,,-99.99,,2013-05-26 23:11:00,
2013-05-26 16:22:00,60.0,40.0,-100.00,WSW,258,19.0,25.0,47,-99.99,,,-99.99,,2013-05-26 23:22:00,
2013-05-26 16:32:00,60.0,39.0,-100.00,WSW,254,17.0,22.0,45,-99.99,,,-99.99,,2013-05-26 23:32:00,
2013-05-26 16:42:00,60.0,40.0,-100.00,WSW,258,18.0,24.0,47,-99.99,,,-99.99,,2013-05-26 23:42:00,
2013-05-26 16:51:00,59.0,40.0,-100.00,WSW,256,17.0,23.0,49,-99.99,,,-99.99,,2013-05-26 23:51:00,
2013-05-26 17:02:00,59.0,39.0,-100.00,WSW,258,18.0,24.0,48,-99.99,,,-99.99,,2013-05-27 00:02:00,
2013-05-26 17:11:00,59.0,41.0,-100.00,WSW,257,18.0,25.0,51,-99.99,,,-99.99,,2013-05-27 00:11:00,
2013-05-26 17:21:00,59.0,40.0,-100.00,WSW,255,16.0,24.0,50,-99.99,,,-99.99,,2013-05-27 00:21:00,
2013-05-26 17:31:00,59.0,40.0,-100.00,WSW,255,16.0,24.0,50,-99.99,,,-99.99,,2013-05-27 00:31:00,
2013-05-26 17:41:00,59.0,40.0,-100.00,WSW,258,16.0,22.0,49,-99.99,,,-99.99,,2013-05-27 00:41:00,
2013-05-26 17:52:00,59.0,39.0,-100.00,West,260,16.0,22.0,48,-99.99,,,-99.99,,2013-05-27 00:52:00,
2013-05-26 18:01:00,59.0,40.0,-100.00,WSW,257,15.0,20.0,49,-99.99,,,-99.99,,2013-05-27 01:01:00,
2013-05-26 18:11:00,58.0,39.0,-100.00,West,262,15.0,21.0,49,-99.99,,,-99.99,,2013-05-27 01:11:00,
2013-05-26 18:21:00,58.0,38.0,-100.00,WSW,256,13.0,18.0,48,-99.99,,,-99.99,,2013-05-27 01:21:00,
2013-05-26 18:31:00,58.0,39.0,-100.00,WSW,245,12.0,19.0,49,-99.99,,,-99.99,,2013-05-27 01:31:00,
2013-05-26 18:42:00,58.0,39.0,-100.00,WSW,249,12.0,19.0,49,-99.99,,,-99.99,,2013-05-27 01:42:00,
2013-05-26 18:52:00,57.0,38.0,-100.00,WSW,243,12.0,17.0,49,-99.99,,,-99.99,,2013-05-27 01:52:00,
2013-05-26 19:01:00,57.0,39.0,-100.00,WSW,241,12.0,18.0,50,-99.99,,,-99.99,,2013-05-27 02:01:00,
2013-05-26 19:11:00,57.0,39.0,-100.00,WSW,243,12.0,19.0,50,-99.99,,,-99.99,,2013-05-27 02:11:00,
2013-05-26 19:21:00,56.0,39.0,-100.00,WSW,241,10.0,17.0,52,-99.99,,,-99.99,,2013-05-27 02:21:00,
2013-05-26 19:31:00,56.0,40.0,-100.00,WSW,237,9.0,15.0,55,-99.99,,,-99.99,,2013-05-27 02:31:00,
2013-05-26 19:42:00,55.0,41.0,-100.00,SW,234,9.0,16.0,58,-99.99,,,-99.99,,2013-05-27 02:42:00,
2013-05-26 19:52:00,55.0,41.0,-100.00,SW,224,7.0,13.0,59,-99.99,,,-99.99,,2013-05-27 02:52:00,
2013-05-26 20:02:00,54.0,42.0,-100.00,WSW,238,8.0,12.0,63,-99.99,,,-99.99,,2013-05-27 03:02:00,
2013-05-26 20:11:00,53.0,42.0,-100.00,SW,232,6.0,9.0,67,-99.99,,,-99.99,,2013-05-27 03:11:00,
2013-05-26 20:21:00,52.0,43.0,-100.00,SW,220,6.0,9.0,70,-99.99,,,-99.99,,2013-05-27 03:21:00,
2013-05-26 20:33:00,51.0,42.0,-100.00,WSW,244,6.0,9.0,71,-99.99,,,-99.99,,2013-05-27 03:33:00,
2013-05-26 20:42:00,51.0,42.0,-100.00,West,262,7.0,9.0,70,-99.99,,,-99.99,,2013-05-27 03:42:00,
2013-05-26 20:53:00,51.0,40.0,-100.00,West,265,6.0,9.0,67,-99.99,,,-99.99,,2013-05-27 03:53:00,
2013-05-26 21:02:00,51.0,38.0,-100.00,WSW,242,6.0,8.0,61,-99.99,,,-99.99,,2013-05-27 04:02:00,
2013-05-26 21:12:00,51.0,33.0,-100.00,SW,231,7.0,11.0,50,-99.99,,,-99.99,,2013-05-27 04:12:00,
2013-05-26 21:22:00,52.0,28.0,-100.00,SW,228,8.0,13.0,40,-99.99,,,-99.99,,2013-05-27 04:22:00,
2013-05-26 21:33:00,52.0,30.0,-100.00,SW,235,7.0,10.0,42,-99.99,,,-99.99,,2013-05-27 04:33:00,
2013-05-26 21:42:00,52.0,31.0,-100.00,SW,235,8.0,11.0,44,-99.99,,,-99.99,,2013-05-27 04:42:00,
2013-05-26 21:52:00,51.0,29.0,-100.00,WSW,239,7.0,9.0,43,-99.99,,,-99.99,,2013-05-27 04:52:00,
2013-05-26 22:02:00,51.0,30.0,-100.00,WSW,246,8.0,11.0,45,-99.99,,,-99.99,,2013-05-27 05:02:00,
2013-05-26 22:12:00,51.0,31.0,-100.00,WSW,252,8.0,12.0,46,-99.99,,,-99.99,,2013-05-27 05:12:00,
2013-05-26 22:21:00,51.0,31.0,-100.00,SW,235,8.0,12.0,46,-99.99,,,-99.99,,2013-05-27 05:21:00,
2013-05-26 22:32:00,51.0,31.0,-100.00,SW,234,8.0,11.0,46,-99.99,,,-99.99,,2013-05-27 05:32:00,
2013-05-26 22:41:00,51.0,30.0,-100.00,SW,230,9.0,12.0,44,-99.99,,,-99.99,,2013-05-27 05:41:00,
2013-05-26 22:52:00,51.0,31.0,-100.00,WSW,240,7.0,12.0,46,-99.99,,,-99.99,,2013-05-27 05:52:00,
2013-05-26 23:01:00,51.0,31.0,-100.00,SW,234,9.0,13.0,46,-99.99,,,-99.99,,2013-05-27 06:01:00,
2013-05-26 23:11:00,51.0,31.0,-100.00,SW,228,9.0,13.0,47,-99.99,,,-99.99,,2013-05-27 06:11:00,
2013-05-26 23:21:00,51.0,33.0,-100.00,SW,223,9.0,14.0,49,-99.99,,,-99.99,,2013-05-27 06:21:00,
2013-05-26 23:31:00,51.0,33.0,-100.00,SW,220,9.0,16.0,49,-99.99,,,-99.99,,2013-05-27 06:31:00,
2013-05-26 23:41:00,50.0,31.0,-100.00,SW,217,9.0,13.0,47,-99.99,,,-99.99,,2013-05-27 06:41:00,
2013-05-26 23:52:00,50.0,31.0,-100.00,SW,217,9.0,13.0,47,-99.99,,,-99.99,,2013-05-27 06:52:00,